<?xml version='1.0' encoding='UTF-8'?><gpx version="1.1" creator="JPX - https://github.com/jenetics/jpx" xmlns="http://www.topografix.com/GPX/1/1"><trk><trkseg><trkpt lat="43.7575859" lon="11.180768"><ele>45.0</ele><time>2026-04-29T10:44:16.74Z</time></trkpt><trkpt lat="43.7577078" lon="11.1806915"><ele>45.0</ele><time>2026-04-29T10:44:37.46Z</time></trkpt><trkpt lat="43.7576353" lon="11.1804159"><ele>45.0</ele><time>2026-04-29T10:44:38.439Z</time></trkpt><trkpt lat="43.7575184" lon="11.1799146"><ele>44.0</ele><time>2026-04-29T10:44:39.526Z</time></trkpt><trkpt lat="43.7574788" lon="11.1797336"><ele>43.0</ele><time>2026-04-29T10:44:40.505Z</time></trkpt><trkpt lat="43.7576975" lon="11.1805142"><ele>43.16666666666667</ele><time>2026-04-29T10:44:41.483Z</time></trkpt><trkpt lat="43.7577364" lon="11.1806758"><ele>43.333333333333336</ele><time>2026-04-29T10:44:42.295Z</time></trkpt><trkpt lat="43.7577281" lon="11.1807714"><ele>43.5</ele><time>2026-04-29T10:44:45.505Z</time></trkpt><trkpt lat="43.7577869" lon="11.1808396"><ele>43.666666666666664</ele><time>2026-04-29T10:44:52.393Z</time></trkpt><trkpt lat="43.7578732" lon="11.1808507"><ele>43.83333333333333</ele><time>2026-04-29T10:44:56.482Z</time></trkpt><trkpt lat="43.7579453" lon="11.1808724"><ele>44.0</ele><time>2026-04-29T10:44:59.794Z</time></trkpt><trkpt lat="43.7580072" lon="11.1809211"><ele>44.142857142857146</ele><time>2026-04-29T10:45:04.072Z</time></trkpt><trkpt lat="43.7580389" lon="11.1809967"><ele>44.285714285714285</ele><time>2026-04-29T10:45:09.427Z</time></trkpt><trkpt lat="43.7579994" lon="11.1810762"><ele>44.42857142857143</ele><time>2026-04-29T10:45:16.482Z</time></trkpt><trkpt lat="43.7579517" lon="11.1811546"><ele>44.57142857142857</ele><time>2026-04-29T10:45:21.483Z</time></trkpt><trkpt lat="43.7579119" lon="11.1812453"><ele>44.714285714285715</ele><time>2026-04-29T10:45:26.371Z</time></trkpt><trkpt lat="43.757863" lon="11.1813254"><ele>44.857142857142854</ele><time>2026-04-29T10:45:31.483Z</time></trkpt><trkpt lat="43.7578325" lon="11.1814199"><ele>45.0</ele><time>2026-04-29T10:45:36.507Z</time></trkpt><trkpt lat="43.7578047" lon="11.1815142"><ele>44.857142857142854</ele><time>2026-04-29T10:45:41.482Z</time></trkpt><trkpt lat="43.7577757" lon="11.1815935"><ele>44.714285714285715</ele><time>2026-04-29T10:45:45.431Z</time></trkpt><trkpt lat="43.7577276" lon="11.1816576"><ele>44.57142857142857</ele><time>2026-04-29T10:45:49.526Z</time></trkpt><trkpt lat="43.7576871" lon="11.1817403"><ele>44.42857142857143</ele><time>2026-04-29T10:45:54.525Z</time></trkpt><trkpt lat="43.7576349" lon="11.1818083"><ele>44.285714285714285</ele><time>2026-04-29T10:45:59.525Z</time></trkpt><trkpt lat="43.7576146" lon="11.1818973"><ele>44.142857142857146</ele><time>2026-04-29T10:46:03.39Z</time></trkpt><trkpt lat="43.7575596" lon="11.1819704"><ele>44.0</ele><time>2026-04-29T10:46:08.437Z</time></trkpt><trkpt lat="43.7575209" lon="11.1820563"><ele>43.85714285714286</ele><time>2026-04-29T10:46:13.515Z</time></trkpt><trkpt lat="43.7574794" lon="11.1821251"><ele>43.714285714285715</ele><time>2026-04-29T10:46:18.437Z</time></trkpt><trkpt lat="43.7574345" lon="11.1821897"><ele>43.57142857142857</ele><time>2026-04-29T10:46:24.352Z</time></trkpt><trkpt lat="43.7574298" lon="11.1822886"><ele>43.42857142857143</ele><time>2026-04-29T10:46:29.428Z</time></trkpt><trkpt lat="43.7573797" lon="11.1823635"><ele>43.285714285714285</ele><time>2026-04-29T10:46:34.523Z</time></trkpt><trkpt lat="43.7573427" lon="11.1824386"><ele>43.142857142857146</ele><time>2026-04-29T10:46:40.501Z</time></trkpt><trkpt lat="43.7573034" lon="11.1825125"><ele>43.0</ele><time>2026-04-29T10:46:45.5Z</time></trkpt><trkpt lat="43.7572735" lon="11.1826072"><ele>43.42857142857143</ele><time>2026-04-29T10:46:50.5Z</time></trkpt><trkpt lat="43.7572247" lon="11.1826931"><ele>43.85714285714286</ele><time>2026-04-29T10:46:55.432Z</time></trkpt><trkpt lat="43.7571771" lon="11.1827762"><ele>44.28571428571429</ele><time>2026-04-29T10:47:00.499Z</time></trkpt><trkpt lat="43.7571638" lon="11.1828746"><ele>44.714285714285715</ele><time>2026-04-29T10:47:05.499Z</time></trkpt><trkpt lat="43.7571288" lon="11.1829626"><ele>45.14285714285714</ele><time>2026-04-29T10:47:11.477Z</time></trkpt><trkpt lat="43.7570759" lon="11.1830099"><ele>45.57142857142858</ele><time>2026-04-29T10:47:16.477Z</time></trkpt><trkpt lat="43.7570475" lon="11.1830923"><ele>46.0</ele><time>2026-04-29T10:47:20.499Z</time></trkpt><trkpt lat="43.7570198" lon="11.1831795"><ele>46.285714285714285</ele><time>2026-04-29T10:47:25.075Z</time></trkpt><trkpt lat="43.7569836" lon="11.1832736"><ele>46.57142857142857</ele><time>2026-04-29T10:47:30.495Z</time></trkpt><trkpt lat="43.7569475" lon="11.1833619"><ele>46.857142857142854</ele><time>2026-04-29T10:47:35.409Z</time></trkpt><trkpt lat="43.7569225" lon="11.1834504"><ele>47.14285714285714</ele><time>2026-04-29T10:47:40.815Z</time></trkpt><trkpt lat="43.7569009" lon="11.1835459"><ele>47.42857142857143</ele><time>2026-04-29T10:47:48.431Z</time></trkpt><trkpt lat="43.7568635" lon="11.1836208"><ele>47.71428571428571</ele><time>2026-04-29T10:47:56.475Z</time></trkpt><trkpt lat="43.7568061" lon="11.1836726"><ele>48.0</ele><time>2026-04-29T10:47:59.518Z</time></trkpt><trkpt lat="43.756744" lon="11.1837362"><ele>47.99999999999999</ele><time>2026-04-29T10:48:03.51Z</time></trkpt><trkpt lat="43.756735" lon="11.1838301"><ele>48.0</ele><time>2026-04-29T10:48:07.452Z</time></trkpt><trkpt lat="43.7567265" lon="11.1839171"><ele>48.0</ele><time>2026-04-29T10:48:11.474Z</time></trkpt><trkpt lat="43.7567007" lon="11.183999"><ele>48.0</ele><time>2026-04-29T10:48:15.495Z</time></trkpt><trkpt lat="43.7566733" lon="11.184081"><ele>48.0</ele><time>2026-04-29T10:48:19.428Z</time></trkpt><trkpt lat="43.7566353" lon="11.1841618"><ele>47.99999999999999</ele><time>2026-04-29T10:48:23.502Z</time></trkpt><trkpt lat="43.7565626" lon="11.1842104"><ele>48.0</ele><time>2026-04-29T10:48:28.692Z</time></trkpt><trkpt lat="43.7564896" lon="11.1842397"><ele>47.99999999999999</ele><time>2026-04-29T10:48:33.235Z</time></trkpt><trkpt lat="43.7564338" lon="11.1842881"><ele>48.0</ele><time>2026-04-29T10:48:38.435Z</time></trkpt><trkpt lat="43.7564156" lon="11.1843726"><ele>48.0</ele><time>2026-04-29T10:48:43.434Z</time></trkpt><trkpt lat="43.756401" lon="11.1844706"><ele>48.0</ele><time>2026-04-29T10:48:48.411Z</time></trkpt><trkpt lat="43.756441" lon="11.1845402"><ele>48.0</ele><time>2026-04-29T10:48:51.477Z</time></trkpt><trkpt lat="43.7564549" lon="11.1846411"><ele>47.99999999999999</ele><time>2026-04-29T10:48:56.477Z</time></trkpt><trkpt lat="43.7564142" lon="11.1847109"><ele>48.0</ele><time>2026-04-29T10:49:00.432Z</time></trkpt><trkpt lat="43.7563842" lon="11.184793"><ele>47.71428571428571</ele><time>2026-04-29T10:49:04.795Z</time></trkpt><trkpt lat="43.7563432" lon="11.1848922"><ele>47.42857142857143</ele><time>2026-04-29T10:49:10.274Z</time></trkpt><trkpt lat="43.7563055" lon="11.1849661"><ele>47.14285714285714</ele><time>2026-04-29T10:49:14.516Z</time></trkpt><trkpt lat="43.756253" lon="11.1850163"><ele>46.857142857142854</ele><time>2026-04-29T10:49:19.51Z</time></trkpt><trkpt lat="43.7561864" lon="11.1850639"><ele>46.57142857142857</ele><time>2026-04-29T10:49:23.502Z</time></trkpt><trkpt lat="43.7561248" lon="11.1850948"><ele>46.285714285714285</ele><time>2026-04-29T10:49:28.532Z</time></trkpt><trkpt lat="43.7560803" lon="11.1851587"><ele>46.0</ele><time>2026-04-29T10:49:33.506Z</time></trkpt><trkpt lat="43.756049" lon="11.1852469"><ele>46.142857142857146</ele><time>2026-04-29T10:49:38.973Z</time></trkpt><trkpt lat="43.7560216" lon="11.1853362"><ele>46.285714285714285</ele><time>2026-04-29T10:49:44.509Z</time></trkpt><trkpt lat="43.7559996" lon="11.1854308"><ele>46.42857142857143</ele><time>2026-04-29T10:49:51.465Z</time></trkpt><trkpt lat="43.755956" lon="11.1854978"><ele>46.57142857142857</ele><time>2026-04-29T10:49:54.431Z</time></trkpt><trkpt lat="43.7559226" lon="11.185583"><ele>46.71428571428571</ele><time>2026-04-29T10:49:57.443Z</time></trkpt><trkpt lat="43.7558948" lon="11.1856657"><ele>46.857142857142854</ele><time>2026-04-29T10:50:01.464Z</time></trkpt><trkpt lat="43.7558569" lon="11.1857471"><ele>47.0</ele><time>2026-04-29T10:50:06.538Z</time></trkpt><trkpt lat="43.7558155" lon="11.1858278"><ele>47.0</ele><time>2026-04-29T10:50:12.44Z</time></trkpt><trkpt lat="43.7557814" lon="11.1859243"><ele>47.0</ele><time>2026-04-29T10:50:19.506Z</time></trkpt><trkpt lat="43.7557405" lon="11.1859941"><ele>47.0</ele><time>2026-04-29T10:50:24.531Z</time></trkpt><trkpt lat="43.7556891" lon="11.1860734"><ele>47.0</ele><time>2026-04-29T10:50:29.505Z</time></trkpt><trkpt lat="43.7556383" lon="11.1861342"><ele>47.0</ele><time>2026-04-29T10:50:34.503Z</time></trkpt><trkpt lat="43.7555651" lon="11.1861495"><ele>47.0</ele><time>2026-04-29T10:50:51.458Z</time></trkpt><trkpt lat="43.7555054" lon="11.1861157"><ele>47.0</ele><time>2026-04-29T10:50:55.479Z</time></trkpt><trkpt lat="43.7554559" lon="11.1860503"><ele>47.0</ele><time>2026-04-29T10:50:59.533Z</time></trkpt><trkpt lat="43.755427" lon="11.1859555"><ele>47.0</ele><time>2026-04-29T10:51:04.499Z</time></trkpt><trkpt lat="43.7553847" lon="11.1858763"><ele>47.0</ele><time>2026-04-29T10:51:10.478Z</time></trkpt><trkpt lat="43.7553284" lon="11.18582"><ele>47.0</ele><time>2026-04-29T10:51:15.477Z</time></trkpt><trkpt lat="43.7552673" lon="11.1857693"><ele>47.0</ele><time>2026-04-29T10:51:19.43Z</time></trkpt><trkpt lat="43.7551999" lon="11.1857283"><ele>47.0</ele><time>2026-04-29T10:51:24.498Z</time></trkpt><trkpt lat="43.7551441" lon="11.1856699"><ele>47.0</ele><time>2026-04-29T10:51:30.476Z</time></trkpt><trkpt lat="43.7550914" lon="11.1856206"><ele>47.0</ele><time>2026-04-29T10:51:35.474Z</time></trkpt><trkpt lat="43.7550358" lon="11.1855589"><ele>47.0</ele><time>2026-04-29T10:51:39.49Z</time></trkpt><trkpt lat="43.7549757" lon="11.1854959"><ele>47.0</ele><time>2026-04-29T10:51:43.512Z</time></trkpt><trkpt lat="43.7549205" lon="11.1854489"><ele>47.0</ele><time>2026-04-29T10:51:48.512Z</time></trkpt><trkpt lat="43.7548499" lon="11.1854078"><ele>47.0</ele><time>2026-04-29T10:51:53.51Z</time></trkpt><trkpt lat="43.7547829" lon="11.1853682"><ele>47.0</ele><time>2026-04-29T10:51:57.533Z</time></trkpt><trkpt lat="43.7547359" lon="11.1852986"><ele>47.0</ele><time>2026-04-29T10:52:03.51Z</time></trkpt><trkpt lat="43.7546854" lon="11.1852397"><ele>47.0</ele><time>2026-04-29T10:52:07.427Z</time></trkpt><trkpt lat="43.7546336" lon="11.1851898"><ele>47.0</ele><time>2026-04-29T10:52:10.465Z</time></trkpt><trkpt lat="43.7545795" lon="11.1851397"><ele>47.0</ele><time>2026-04-29T10:52:14.487Z</time></trkpt><trkpt lat="43.7545261" lon="11.1850749"><ele>47.0</ele><time>2026-04-29T10:52:20.465Z</time></trkpt><trkpt lat="43.7544642" lon="11.1850477"><ele>47.0</ele><time>2026-04-29T10:52:24.485Z</time></trkpt><trkpt lat="43.7544049" lon="11.1850104"><ele>47.0</ele><time>2026-04-29T10:52:29.427Z</time></trkpt><trkpt lat="43.7543482" lon="11.1849626"><ele>47.0</ele><time>2026-04-29T10:52:34.484Z</time></trkpt><trkpt lat="43.7542999" lon="11.1849043"><ele>47.14285714285714</ele><time>2026-04-29T10:52:38.505Z</time></trkpt><trkpt lat="43.7542481" lon="11.1848432"><ele>47.285714285714285</ele><time>2026-04-29T10:52:44.484Z</time></trkpt><trkpt lat="43.7541959" lon="11.1847801"><ele>47.42857142857143</ele><time>2026-04-29T10:52:49.482Z</time></trkpt><trkpt lat="43.7541314" lon="11.1847361"><ele>47.57142857142857</ele><time>2026-04-29T10:52:55.513Z</time></trkpt><trkpt lat="43.7540722" lon="11.1846629"><ele>47.714285714285715</ele><time>2026-04-29T10:53:00.459Z</time></trkpt><trkpt lat="43.7540324" lon="11.1845942"><ele>47.857142857142854</ele><time>2026-04-29T10:53:05.46Z</time></trkpt><trkpt lat="43.7539623" lon="11.1845567"><ele>48.0</ele><time>2026-04-29T10:53:12.523Z</time></trkpt><trkpt lat="43.7539067" lon="11.184512"><ele>47.99999999999999</ele><time>2026-04-29T10:53:17.451Z</time></trkpt><trkpt lat="43.7538431" lon="11.1845072"><ele>48.0</ele><time>2026-04-29T10:53:25.457Z</time></trkpt><trkpt lat="43.7537788" lon="11.184542"><ele>48.0</ele><time>2026-04-29T10:53:29.478Z</time></trkpt><trkpt lat="43.7537056" lon="11.1845261"><ele>48.0</ele><time>2026-04-29T10:53:33.499Z</time></trkpt><trkpt lat="43.7536368" lon="11.1845364"><ele>48.0</ele><time>2026-04-29T10:53:38.5Z</time></trkpt><trkpt lat="43.7535645" lon="11.1845453"><ele>47.99999999999999</ele><time>2026-04-29T10:53:42.427Z</time></trkpt><trkpt lat="43.7534948" lon="11.1845693"><ele>48.0</ele><time>2026-04-29T10:53:47.395Z</time></trkpt><trkpt lat="43.7534376" lon="11.1846258"><ele>47.857142857142854</ele><time>2026-04-29T10:53:53.835Z</time></trkpt><trkpt lat="43.7533897" lon="11.1847071"><ele>47.714285714285715</ele><time>2026-04-29T10:53:58.195Z</time></trkpt><trkpt lat="43.7533415" lon="11.1847724"><ele>47.57142857142857</ele><time>2026-04-29T10:54:02.496Z</time></trkpt><trkpt lat="43.7532918" lon="11.1848411"><ele>47.42857142857143</ele><time>2026-04-29T10:54:07.517Z</time></trkpt><trkpt lat="43.7532463" lon="11.184922"><ele>47.285714285714285</ele><time>2026-04-29T10:54:11.43Z</time></trkpt><trkpt lat="43.7532083" lon="11.1849974"><ele>47.14285714285714</ele><time>2026-04-29T10:54:17.516Z</time></trkpt><trkpt lat="43.7531459" lon="11.1850602"><ele>47.0</ele><time>2026-04-29T10:54:22.515Z</time></trkpt><trkpt lat="43.7530949" lon="11.1851233"><ele>47.0</ele><time>2026-04-29T10:54:28.493Z</time></trkpt><trkpt lat="43.7530601" lon="11.1852124"><ele>47.0</ele><time>2026-04-29T10:54:36.537Z</time></trkpt><trkpt lat="43.7530359" lon="11.1853036"><ele>47.0</ele><time>2026-04-29T10:54:43.492Z</time></trkpt><trkpt lat="43.7529906" lon="11.1853686"><ele>47.0</ele><time>2026-04-29T10:54:48.505Z</time></trkpt><trkpt lat="43.7529598" lon="11.1854582"><ele>47.0</ele><time>2026-04-29T10:54:54.469Z</time></trkpt><trkpt lat="43.7529123" lon="11.1855336"><ele>47.0</ele><time>2026-04-29T10:54:59.468Z</time></trkpt><trkpt lat="43.752875" lon="11.1856192"><ele>47.0</ele><time>2026-04-29T10:55:04.467Z</time></trkpt><trkpt lat="43.7528196" lon="11.1857014"><ele>47.0</ele><time>2026-04-29T10:55:09.467Z</time></trkpt><trkpt lat="43.7527859" lon="11.18578"><ele>47.0</ele><time>2026-04-29T10:55:14.537Z</time></trkpt><trkpt lat="43.7527262" lon="11.1858546"><ele>47.0</ele><time>2026-04-29T10:55:20.445Z</time></trkpt><trkpt lat="43.7526568" lon="11.1858762"><ele>47.0</ele><time>2026-04-29T10:55:23.436Z</time></trkpt><trkpt lat="43.752587" lon="11.1858916"><ele>47.0</ele><time>2026-04-29T10:55:28.487Z</time></trkpt><trkpt lat="43.7525258" lon="11.1859249"><ele>47.0</ele><time>2026-04-29T10:55:34.465Z</time></trkpt><trkpt lat="43.7524691" lon="11.185964"><ele>47.0</ele><time>2026-04-29T10:55:40.433Z</time></trkpt><trkpt lat="43.752425" lon="11.1860443"><ele>47.0</ele><time>2026-04-29T10:55:47.453Z</time></trkpt><trkpt lat="43.7524021" lon="11.1861274"><ele>47.0</ele><time>2026-04-29T10:55:51.528Z</time></trkpt><trkpt lat="43.7523979" lon="11.1862238"><ele>47.0</ele><time>2026-04-29T10:55:56.527Z</time></trkpt><trkpt lat="43.7524009" lon="11.1863145"><ele>47.0</ele><time>2026-04-29T10:56:01.525Z</time></trkpt><trkpt lat="43.7524247" lon="11.1864309"><ele>47.0</ele><time>2026-04-29T10:56:05.439Z</time></trkpt><trkpt lat="43.7524604" lon="11.1865187"><ele>47.0</ele><time>2026-04-29T10:56:08.513Z</time></trkpt><trkpt lat="43.752499" lon="11.186615"><ele>47.0</ele><time>2026-04-29T10:56:12.502Z</time></trkpt><trkpt lat="43.7524826" lon="11.1867056"><ele>47.0</ele><time>2026-04-29T10:56:17.502Z</time></trkpt><trkpt lat="43.75245" lon="11.1867884"><ele>47.0</ele><time>2026-04-29T10:56:23.479Z</time></trkpt><trkpt lat="43.7524065" lon="11.1868629"><ele>47.0</ele><time>2026-04-29T10:56:28.516Z</time></trkpt><trkpt lat="43.7523684" lon="11.1869395"><ele>47.0</ele><time>2026-04-29T10:56:33.479Z</time></trkpt><trkpt lat="43.7523322" lon="11.1870165"><ele>47.0</ele><time>2026-04-29T10:56:38.5Z</time></trkpt><trkpt lat="43.7522908" lon="11.1870822"><ele>47.0</ele><time>2026-04-29T10:56:43.477Z</time></trkpt><trkpt lat="43.7522442" lon="11.1871547"><ele>47.0</ele><time>2026-04-29T10:56:50.271Z</time></trkpt><trkpt lat="43.7522081" lon="11.1872317"><ele>47.0</ele><time>2026-04-29T10:56:54.47Z</time></trkpt><trkpt lat="43.7521695" lon="11.1873044"><ele>47.0</ele><time>2026-04-29T10:56:58.471Z</time></trkpt><trkpt lat="43.7521598" lon="11.1873969"><ele>47.0</ele><time>2026-04-29T10:57:04.449Z</time></trkpt><trkpt lat="43.7522128" lon="11.1874507"><ele>47.0</ele><time>2026-04-29T10:57:10.537Z</time></trkpt><trkpt lat="43.7522138" lon="11.1875428"><ele>47.0</ele><time>2026-04-29T10:57:18.473Z</time></trkpt><trkpt lat="43.7522223" lon="11.1876382"><ele>47.0</ele><time>2026-04-29T10:57:24.452Z</time></trkpt><trkpt lat="43.7522711" lon="11.187702"><ele>47.0</ele><time>2026-04-29T10:57:30.43Z</time></trkpt><trkpt lat="43.7523352" lon="11.1877495"><ele>47.0</ele><time>2026-04-29T10:57:39.453Z</time></trkpt><trkpt lat="43.7523808" lon="11.1878116"><ele>47.0</ele><time>2026-04-29T10:57:42.331Z</time></trkpt><trkpt lat="43.7524068" lon="11.1879014"><ele>47.0</ele><time>2026-04-29T10:57:45.493Z</time></trkpt><trkpt lat="43.7524284" lon="11.1879907"><ele>47.0</ele><time>2026-04-29T10:57:48.475Z</time></trkpt><trkpt lat="43.7524513" lon="11.1881018"><ele>47.0</ele><time>2026-04-29T10:57:52.498Z</time></trkpt><trkpt lat="43.7524934" lon="11.1881759"><ele>47.0</ele><time>2026-04-29T10:57:56.501Z</time></trkpt><trkpt lat="43.7525337" lon="11.1882512"><ele>47.0</ele><time>2026-04-29T10:58:00.433Z</time></trkpt><trkpt lat="43.7525733" lon="11.1883338"><ele>47.0</ele><time>2026-04-29T10:58:04.454Z</time></trkpt><trkpt lat="43.7526132" lon="11.1884199"><ele>47.0</ele><time>2026-04-29T10:58:08.476Z</time></trkpt><trkpt lat="43.7526548" lon="11.1884978"><ele>47.0</ele><time>2026-04-29T10:58:13.454Z</time></trkpt><trkpt lat="43.7526977" lon="11.1885665"><ele>47.0</ele><time>2026-04-29T10:58:20.432Z</time></trkpt><trkpt lat="43.7527301" lon="11.1886445"><ele>47.0</ele><time>2026-04-29T10:58:26.518Z</time></trkpt><trkpt lat="43.7527734" lon="11.1887281"><ele>47.0</ele><time>2026-04-29T10:58:32.815Z</time></trkpt><trkpt lat="43.7528226" lon="11.1888"><ele>47.0</ele><time>2026-04-29T10:58:39.452Z</time></trkpt><trkpt lat="43.7528616" lon="11.1888817"><ele>47.0</ele><time>2026-04-29T10:58:44.395Z</time></trkpt><trkpt lat="43.7528957" lon="11.188959"><ele>47.0</ele><time>2026-04-29T10:58:47.872Z</time></trkpt><trkpt lat="43.7529445" lon="11.189061"><ele>47.0</ele><time>2026-04-29T10:58:52.445Z</time></trkpt><trkpt lat="43.7529834" lon="11.1891378"><ele>47.0</ele><time>2026-04-29T10:58:56.475Z</time></trkpt><trkpt lat="43.7530182" lon="11.1892131"><ele>47.0</ele><time>2026-04-29T10:59:01.375Z</time></trkpt><trkpt lat="43.7530609" lon="11.1892859"><ele>47.0</ele><time>2026-04-29T10:59:06.427Z</time></trkpt><trkpt lat="43.7531054" lon="11.1893598"><ele>47.0</ele><time>2026-04-29T10:59:11.427Z</time></trkpt><trkpt lat="43.7531455" lon="11.1894361"><ele>47.285714285714285</ele><time>2026-04-29T10:59:16.427Z</time></trkpt><trkpt lat="43.753187" lon="11.189517"><ele>47.57142857142857</ele><time>2026-04-29T10:59:21.517Z</time></trkpt><trkpt lat="43.7532353" lon="11.1895931"><ele>47.85714285714286</ele><time>2026-04-29T10:59:26.516Z</time></trkpt><trkpt lat="43.7532825" lon="11.1896561"><ele>48.14285714285714</ele><time>2026-04-29T10:59:31.372Z</time></trkpt><trkpt lat="43.7533066" lon="11.1897432"><ele>48.42857142857143</ele><time>2026-04-29T10:59:36.516Z</time></trkpt><trkpt lat="43.7533507" lon="11.1898072"><ele>48.714285714285715</ele><time>2026-04-29T10:59:40.503Z</time></trkpt><trkpt lat="43.7533888" lon="11.1899013"><ele>49.0</ele><time>2026-04-29T10:59:45.429Z</time></trkpt><trkpt lat="43.7534267" lon="11.1899869"><ele>49.0</ele><time>2026-04-29T10:59:49.45Z</time></trkpt><trkpt lat="43.7534655" lon="11.1900613"><ele>49.0</ele><time>2026-04-29T10:59:53.5Z</time></trkpt><trkpt lat="43.7535051" lon="11.1901379"><ele>49.0</ele><time>2026-04-29T10:59:58.471Z</time></trkpt><trkpt lat="43.7535448" lon="11.1902219"><ele>49.0</ele><time>2026-04-29T11:00:03.472Z</time></trkpt><trkpt lat="43.7535956" lon="11.1902957"><ele>49.0</ele><time>2026-04-29T11:00:09.515Z</time></trkpt><trkpt lat="43.7536362" lon="11.1903857"><ele>49.0</ele><time>2026-04-29T11:00:14.449Z</time></trkpt><trkpt lat="43.7536734" lon="11.1904774"><ele>49.0</ele><time>2026-04-29T11:00:19.448Z</time></trkpt><trkpt lat="43.7537094" lon="11.1905599"><ele>48.857142857142854</ele><time>2026-04-29T11:00:23.469Z</time></trkpt><trkpt lat="43.7537498" lon="11.1906468"><ele>48.714285714285715</ele><time>2026-04-29T11:00:28.469Z</time></trkpt><trkpt lat="43.7538015" lon="11.1907434"><ele>48.57142857142857</ele><time>2026-04-29T11:00:34.873Z</time></trkpt><trkpt lat="43.7538737" lon="11.190753"><ele>48.42857142857143</ele><time>2026-04-29T11:00:47.432Z</time></trkpt><trkpt lat="43.7539077" lon="11.1908368"><ele>48.285714285714285</ele><time>2026-04-29T11:00:51.428Z</time></trkpt><trkpt lat="43.7539382" lon="11.190914"><ele>48.14285714285714</ele><time>2026-04-29T11:00:55.431Z</time></trkpt><trkpt lat="43.7539909" lon="11.1909707"><ele>48.0</ele><time>2026-04-29T11:01:00.372Z</time></trkpt><trkpt lat="43.7540496" lon="11.1909247"><ele>47.99999999999999</ele><time>2026-04-29T11:01:06.427Z</time></trkpt><trkpt lat="43.7541117" lon="11.1908723"><ele>48.0</ele><time>2026-04-29T11:01:12.49Z</time></trkpt><trkpt lat="43.7541694" lon="11.1908061"><ele>48.0</ele><time>2026-04-29T11:01:18.47Z</time></trkpt><trkpt lat="43.7542196" lon="11.1907428"><ele>48.0</ele><time>2026-04-29T11:01:22.49Z</time></trkpt><trkpt lat="43.7542869" lon="11.1906795"><ele>48.0</ele><time>2026-04-29T11:01:29.448Z</time></trkpt><trkpt lat="43.7543479" lon="11.1906204"><ele>47.99999999999999</ele><time>2026-04-29T11:01:34.449Z</time></trkpt><trkpt lat="43.75441" lon="11.1905668"><ele>48.0</ele><time>2026-04-29T11:01:39.449Z</time></trkpt><trkpt lat="43.7544662" lon="11.1905146"><ele>47.71428571428571</ele><time>2026-04-29T11:01:45.428Z</time></trkpt><trkpt lat="43.7545143" lon="11.1904427"><ele>47.42857142857143</ele><time>2026-04-29T11:01:50.427Z</time></trkpt><trkpt lat="43.7545742" lon="11.1904136"><ele>47.14285714285714</ele><time>2026-04-29T11:01:55.427Z</time></trkpt><trkpt lat="43.7546306" lon="11.1903697"><ele>46.857142857142854</ele><time>2026-04-29T11:02:03.494Z</time></trkpt><trkpt lat="43.7546953" lon="11.1903454"><ele>46.57142857142857</ele><time>2026-04-29T11:02:12.372Z</time></trkpt><trkpt lat="43.7547476" lon="11.1904137"><ele>46.285714285714285</ele><time>2026-04-29T11:02:18.474Z</time></trkpt><trkpt lat="43.7547802" lon="11.1905022"><ele>46.0</ele><time>2026-04-29T11:02:22.495Z</time></trkpt><trkpt lat="43.7548308" lon="11.1905718"><ele>46.0</ele><time>2026-04-29T11:02:26.391Z</time></trkpt><trkpt lat="43.7548771" lon="11.1906403"><ele>46.0</ele><time>2026-04-29T11:02:30.431Z</time></trkpt><trkpt lat="43.7549202" lon="11.1907076"><ele>46.0</ele><time>2026-04-29T11:02:34.452Z</time></trkpt><trkpt lat="43.7549652" lon="11.1907748"><ele>46.0</ele><time>2026-04-29T11:02:38.491Z</time></trkpt><trkpt lat="43.7550087" lon="11.1908439"><ele>46.0</ele><time>2026-04-29T11:02:42.497Z</time></trkpt><trkpt lat="43.755056" lon="11.1909201"><ele>46.0</ele><time>2026-04-29T11:02:48.412Z</time></trkpt><trkpt lat="43.7551024" lon="11.1909915"><ele>46.0</ele><time>2026-04-29T11:02:53.476Z</time></trkpt><trkpt lat="43.7551526" lon="11.1910621"><ele>46.0</ele><time>2026-04-29T11:02:58.033Z</time></trkpt><trkpt lat="43.7551965" lon="11.1911314"><ele>46.0</ele><time>2026-04-29T11:03:02.354Z</time></trkpt><trkpt lat="43.7552451" lon="11.1912057"><ele>46.0</ele><time>2026-04-29T11:03:07.392Z</time></trkpt><trkpt lat="43.7552913" lon="11.1912788"><ele>46.0</ele><time>2026-04-29T11:03:12.427Z</time></trkpt><trkpt lat="43.755343" lon="11.1913465"><ele>46.0</ele><time>2026-04-29T11:03:17.499Z</time></trkpt><trkpt lat="43.7553838" lon="11.1914276"><ele>46.0</ele><time>2026-04-29T11:03:22.427Z</time></trkpt><trkpt lat="43.755431" lon="11.1914967"><ele>46.0</ele><time>2026-04-29T11:03:27.427Z</time></trkpt><trkpt lat="43.7554794" lon="11.1915653"><ele>45.85714285714286</ele><time>2026-04-29T11:03:32.428Z</time></trkpt><trkpt lat="43.755517" lon="11.1916439"><ele>45.71428571428571</ele><time>2026-04-29T11:03:37.427Z</time></trkpt><trkpt lat="43.7555589" lon="11.1917178"><ele>45.57142857142857</ele><time>2026-04-29T11:03:41.427Z</time></trkpt><trkpt lat="43.7555978" lon="11.1917898"><ele>45.42857142857143</ele><time>2026-04-29T11:03:46.427Z</time></trkpt><trkpt lat="43.755648" lon="11.1918683"><ele>45.28571428571429</ele><time>2026-04-29T11:03:51.427Z</time></trkpt><trkpt lat="43.7556902" lon="11.1919406"><ele>45.14285714285714</ele><time>2026-04-29T11:03:56.493Z</time></trkpt><trkpt lat="43.7557516" lon="11.1919999"><ele>45.0</ele><time>2026-04-29T11:04:02.428Z</time></trkpt><trkpt lat="43.7558019" lon="11.1920711"><ele>45.0</ele><time>2026-04-29T11:04:06.427Z</time></trkpt><trkpt lat="43.7558525" lon="11.1921348"><ele>45.0</ele><time>2026-04-29T11:04:11.427Z</time></trkpt><trkpt lat="43.7559163" lon="11.1921851"><ele>45.0</ele><time>2026-04-29T11:04:17.427Z</time></trkpt><trkpt lat="43.7559781" lon="11.1922293"><ele>45.0</ele><time>2026-04-29T11:04:23.485Z</time></trkpt><trkpt lat="43.7560374" lon="11.1922627"><ele>45.0</ele><time>2026-04-29T11:04:28.486Z</time></trkpt><trkpt lat="43.7561061" lon="11.1922804"><ele>45.0</ele><time>2026-04-29T11:04:33.487Z</time></trkpt><trkpt lat="43.7561686" lon="11.1922977"><ele>45.0</ele><time>2026-04-29T11:04:38.487Z</time></trkpt><trkpt lat="43.7562391" lon="11.192303"><ele>45.0</ele><time>2026-04-29T11:04:43.487Z</time></trkpt><trkpt lat="43.7563035" lon="11.1923001"><ele>45.0</ele><time>2026-04-29T11:04:48.487Z</time></trkpt><trkpt lat="43.7563803" lon="11.1922996"><ele>45.0</ele><time>2026-04-29T11:04:53.488Z</time></trkpt><trkpt lat="43.7564507" lon="11.1922893"><ele>45.0</ele><time>2026-04-29T11:04:57.428Z</time></trkpt><trkpt lat="43.7565152" lon="11.1922902"><ele>45.0</ele><time>2026-04-29T11:05:01.411Z</time></trkpt><trkpt lat="43.7565826" lon="11.1922927"><ele>45.0</ele><time>2026-04-29T11:05:06.471Z</time></trkpt><trkpt lat="43.7566532" lon="11.192289"><ele>45.0</ele><time>2026-04-29T11:05:11.352Z</time></trkpt><trkpt lat="43.7567216" lon="11.1922874"><ele>45.0</ele><time>2026-04-29T11:05:16.428Z</time></trkpt><trkpt lat="43.7567989" lon="11.1922925"><ele>45.0</ele><time>2026-04-29T11:05:21.427Z</time></trkpt><trkpt lat="43.7568705" lon="11.1922943"><ele>45.0</ele><time>2026-04-29T11:05:26.427Z</time></trkpt><trkpt lat="43.7569379" lon="11.1922896"><ele>45.0</ele><time>2026-04-29T11:05:31.428Z</time></trkpt><trkpt lat="43.7570046" lon="11.1923063"><ele>45.0</ele><time>2026-04-29T11:05:36.428Z</time></trkpt><trkpt lat="43.7570821" lon="11.1923273"><ele>45.0</ele><time>2026-04-29T11:05:42.427Z</time></trkpt><trkpt lat="43.7571511" lon="11.1923264"><ele>45.0</ele><time>2026-04-29T11:05:46.428Z</time></trkpt><trkpt lat="43.7572262" lon="11.1923254"><ele>45.0</ele><time>2026-04-29T11:05:52.428Z</time></trkpt><trkpt lat="43.75731" lon="11.1923274"><ele>45.0</ele><time>2026-04-29T11:05:56.43Z</time></trkpt><trkpt lat="43.7573795" lon="11.1923256"><ele>45.0</ele><time>2026-04-29T11:06:01.393Z</time></trkpt><trkpt lat="43.7574483" lon="11.192329"><ele>45.0</ele><time>2026-04-29T11:06:07.427Z</time></trkpt><trkpt lat="43.7575118" lon="11.1923298"><ele>45.0</ele><time>2026-04-29T11:06:10.453Z</time></trkpt><trkpt lat="43.7575868" lon="11.1923303"><ele>45.0</ele><time>2026-04-29T11:06:14.474Z</time></trkpt><trkpt lat="43.7576535" lon="11.1923336"><ele>45.0</ele><time>2026-04-29T11:06:21.431Z</time></trkpt><trkpt lat="43.7577294" lon="11.1923338"><ele>44.714285714285715</ele><time>2026-04-29T11:06:25.453Z</time></trkpt><trkpt lat="43.7577953" lon="11.1923359"><ele>44.42857142857143</ele><time>2026-04-29T11:06:29.475Z</time></trkpt><trkpt lat="43.7578677" lon="11.1923449"><ele>44.142857142857146</ele><time>2026-04-29T11:06:36.434Z</time></trkpt><trkpt lat="43.7579461" lon="11.1923427"><ele>43.85714285714286</ele><time>2026-04-29T11:06:41.433Z</time></trkpt><trkpt lat="43.7580119" lon="11.1923426"><ele>43.57142857142857</ele><time>2026-04-29T11:06:44.477Z</time></trkpt><trkpt lat="43.7580827" lon="11.1923427"><ele>43.28571428571429</ele><time>2026-04-29T11:06:50.512Z</time></trkpt><trkpt lat="43.7581537" lon="11.1923432"><ele>43.0</ele><time>2026-04-29T11:06:55.458Z</time></trkpt><trkpt lat="43.7582263" lon="11.1923439"><ele>43.00000000000001</ele><time>2026-04-29T11:06:59.48Z</time></trkpt><trkpt lat="43.7582913" lon="11.1923435"><ele>43.0</ele><time>2026-04-29T11:07:04.494Z</time></trkpt><trkpt lat="43.7583669" lon="11.1923379"><ele>43.0</ele><time>2026-04-29T11:07:09.481Z</time></trkpt><trkpt lat="43.7584346" lon="11.1923379"><ele>43.0</ele><time>2026-04-29T11:07:13.427Z</time></trkpt><trkpt lat="43.7585029" lon="11.1923425"><ele>43.0</ele><time>2026-04-29T11:07:19.481Z</time></trkpt><trkpt lat="43.7585758" lon="11.1923325"><ele>43.00000000000001</ele><time>2026-04-29T11:07:25.46Z</time></trkpt><trkpt lat="43.7586425" lon="11.1923257"><ele>43.0</ele><time>2026-04-29T11:07:29.483Z</time></trkpt><trkpt lat="43.7587053" lon="11.1923166"><ele>43.28571428571429</ele><time>2026-04-29T11:07:34.411Z</time></trkpt><trkpt lat="43.7587768" lon="11.1923129"><ele>43.57142857142857</ele><time>2026-04-29T11:07:40.476Z</time></trkpt><trkpt lat="43.7588452" lon="11.1923084"><ele>43.85714285714286</ele><time>2026-04-29T11:07:46.441Z</time></trkpt><trkpt lat="43.7589159" lon="11.1923069"><ele>44.142857142857146</ele><time>2026-04-29T11:07:52.487Z</time></trkpt><trkpt lat="43.7589898" lon="11.1922911"><ele>44.42857142857143</ele><time>2026-04-29T11:07:59.513Z</time></trkpt><trkpt lat="43.7590652" lon="11.1923017"><ele>44.714285714285715</ele><time>2026-04-29T11:08:05.46Z</time></trkpt><trkpt lat="43.7591302" lon="11.1922873"><ele>45.0</ele><time>2026-04-29T11:08:09.483Z</time></trkpt><trkpt lat="43.7592023" lon="11.1922596"><ele>45.0</ele><time>2026-04-29T11:08:14.478Z</time></trkpt><trkpt lat="43.7592694" lon="11.1922663"><ele>45.0</ele><time>2026-04-29T11:08:18.501Z</time></trkpt><trkpt lat="43.7593325" lon="11.1922511"><ele>45.0</ele><time>2026-04-29T11:08:22.352Z</time></trkpt><trkpt lat="43.7593976" lon="11.1922425"><ele>45.0</ele><time>2026-04-29T11:08:26.436Z</time></trkpt><trkpt lat="43.7594778" lon="11.1922398"><ele>45.0</ele><time>2026-04-29T11:08:30.458Z</time></trkpt><trkpt lat="43.7595396" lon="11.19222"><ele>45.0</ele><time>2026-04-29T11:08:34.482Z</time></trkpt><trkpt lat="43.7596139" lon="11.1922004"><ele>45.0</ele><time>2026-04-29T11:08:39.474Z</time></trkpt><trkpt lat="43.7596912" lon="11.192181"><ele>44.714285714285715</ele><time>2026-04-29T11:08:44.415Z</time></trkpt><trkpt lat="43.7597577" lon="11.1921631"><ele>44.42857142857143</ele><time>2026-04-29T11:08:48.504Z</time></trkpt><trkpt lat="43.7598277" lon="11.1921456"><ele>44.142857142857146</ele><time>2026-04-29T11:08:53.453Z</time></trkpt><trkpt lat="43.7598912" lon="11.1921435"><ele>43.85714285714286</ele><time>2026-04-29T11:08:59.433Z</time></trkpt><trkpt lat="43.7599634" lon="11.192118"><ele>43.57142857142857</ele><time>2026-04-29T11:09:04.485Z</time></trkpt><trkpt lat="43.7600272" lon="11.1920902"><ele>43.28571428571429</ele><time>2026-04-29T11:09:09.336Z</time></trkpt><trkpt lat="43.7600908" lon="11.1920678"><ele>43.0</ele><time>2026-04-29T11:09:14.486Z</time></trkpt><trkpt lat="43.760153" lon="11.1920451"><ele>43.00000000000001</ele><time>2026-04-29T11:09:18.51Z</time></trkpt><trkpt lat="43.7602267" lon="11.1920133"><ele>43.0</ele><time>2026-04-29T11:09:22.427Z</time></trkpt><trkpt lat="43.7602963" lon="11.1919855"><ele>43.0</ele><time>2026-04-29T11:09:27.514Z</time></trkpt><trkpt lat="43.7603729" lon="11.1919505"><ele>43.0</ele><time>2026-04-29T11:09:32.428Z</time></trkpt><trkpt lat="43.76044" lon="11.1919211"><ele>43.0</ele><time>2026-04-29T11:09:36.446Z</time></trkpt><trkpt lat="43.760502" lon="11.1918966"><ele>43.00000000000001</ele><time>2026-04-29T11:09:44.274Z</time></trkpt><trkpt lat="43.7605666" lon="11.1918788"><ele>43.0</ele><time>2026-04-29T11:09:48.428Z</time></trkpt><trkpt lat="43.7606284" lon="11.1918492"><ele>43.00000000000001</ele><time>2026-04-29T11:09:54.427Z</time></trkpt><trkpt lat="43.7606982" lon="11.191815"><ele>43.0</ele><time>2026-04-29T11:09:59.493Z</time></trkpt><trkpt lat="43.760762" lon="11.1917841"><ele>43.0</ele><time>2026-04-29T11:10:05.473Z</time></trkpt><trkpt lat="43.7608337" lon="11.1917455"><ele>43.0</ele><time>2026-04-29T11:10:10.473Z</time></trkpt><trkpt lat="43.7608993" lon="11.1917101"><ele>43.0</ele><time>2026-04-29T11:10:15.473Z</time></trkpt><trkpt lat="43.7609543" lon="11.1916502"><ele>43.00000000000001</ele><time>2026-04-29T11:10:21.453Z</time></trkpt><trkpt lat="43.7609772" lon="11.1915672"><ele>43.0</ele><time>2026-04-29T11:10:28.533Z</time></trkpt><trkpt lat="43.7610155" lon="11.1914911"><ele>42.85714285714286</ele><time>2026-04-29T11:10:33.413Z</time></trkpt><trkpt lat="43.7610758" lon="11.1914598"><ele>42.714285714285715</ele><time>2026-04-29T11:10:39.428Z</time></trkpt><trkpt lat="43.7611426" lon="11.1914279"><ele>42.57142857142857</ele><time>2026-04-29T11:10:46.458Z</time></trkpt><trkpt lat="43.7612061" lon="11.1913941"><ele>42.42857142857143</ele><time>2026-04-29T11:10:52.436Z</time></trkpt><trkpt lat="43.7612645" lon="11.1913601"><ele>42.285714285714285</ele><time>2026-04-29T11:10:56.391Z</time></trkpt><trkpt lat="43.7613382" lon="11.191313"><ele>42.142857142857146</ele><time>2026-04-29T11:11:02.439Z</time></trkpt><trkpt lat="43.7613972" lon="11.1912702"><ele>42.0</ele><time>2026-04-29T11:11:06.46Z</time></trkpt><trkpt lat="43.7614619" lon="11.1912221"><ele>42.0</ele><time>2026-04-29T11:11:11.462Z</time></trkpt><trkpt lat="43.7615158" lon="11.1911763"><ele>42.0</ele><time>2026-04-29T11:11:15.484Z</time></trkpt><trkpt lat="43.7615783" lon="11.1911488"><ele>42.0</ele><time>2026-04-29T11:11:19.427Z</time></trkpt><trkpt lat="43.7616315" lon="11.1911002"><ele>42.0</ele><time>2026-04-29T11:11:25.485Z</time></trkpt><trkpt lat="43.7616679" lon="11.1910063"><ele>42.0</ele><time>2026-04-29T11:11:29.432Z</time></trkpt><trkpt lat="43.7617165" lon="11.1909458"><ele>42.0</ele><time>2026-04-29T11:11:37.444Z</time></trkpt><trkpt lat="43.7617714" lon="11.1908965"><ele>42.0</ele><time>2026-04-29T11:11:42.444Z</time></trkpt><trkpt lat="43.7618449" lon="11.190892"><ele>41.857142857142854</ele><time>2026-04-29T11:11:48.428Z</time></trkpt><trkpt lat="43.761914" lon="11.1908551"><ele>41.714285714285715</ele><time>2026-04-29T11:11:52.447Z</time></trkpt><trkpt lat="43.7619681" lon="11.1907979"><ele>41.57142857142857</ele><time>2026-04-29T11:11:56.469Z</time></trkpt><trkpt lat="43.7620225" lon="11.1907278"><ele>41.42857142857143</ele><time>2026-04-29T11:12:01.47Z</time></trkpt><trkpt lat="43.7620712" lon="11.1906708"><ele>41.285714285714285</ele><time>2026-04-29T11:12:05.427Z</time></trkpt><trkpt lat="43.7621273" lon="11.1906054"><ele>41.14285714285714</ele><time>2026-04-29T11:12:10.451Z</time></trkpt><trkpt lat="43.7621748" lon="11.1905318"><ele>41.0</ele><time>2026-04-29T11:12:15.494Z</time></trkpt><trkpt lat="43.7622339" lon="11.1904616"><ele>40.99999999999999</ele><time>2026-04-29T11:12:19.427Z</time></trkpt><trkpt lat="43.7622589" lon="11.1903742"><ele>41.0</ele><time>2026-04-29T11:12:24.427Z</time></trkpt><trkpt lat="43.7622777" lon="11.1902648"><ele>41.0</ele><time>2026-04-29T11:12:29.428Z</time></trkpt><trkpt lat="43.7622995" lon="11.1901776"><ele>41.0</ele><time>2026-04-29T11:12:32.454Z</time></trkpt><trkpt lat="43.7623018" lon="11.1900796"><ele>41.0</ele><time>2026-04-29T11:12:39.355Z</time></trkpt><trkpt lat="43.7623366" lon="11.1899826"><ele>40.99999999999999</ele><time>2026-04-29T11:12:44.427Z</time></trkpt><trkpt lat="43.7623693" lon="11.1899076"><ele>41.0</ele><time>2026-04-29T11:12:48.44Z</time></trkpt><trkpt lat="43.7623342" lon="11.1898092"><ele>40.99999999999999</ele><time>2026-04-29T11:12:53.442Z</time></trkpt><trkpt lat="43.7623421" lon="11.1897181"><ele>41.0</ele><time>2026-04-29T11:12:56.938Z</time></trkpt><trkpt lat="43.7624096" lon="11.1897203"><ele>41.0</ele><time>2026-04-29T11:13:03.442Z</time></trkpt><trkpt lat="43.7624853" lon="11.1897252"><ele>41.0</ele><time>2026-04-29T11:13:09.428Z</time></trkpt><trkpt lat="43.7625555" lon="11.1897243"><ele>41.0</ele><time>2026-04-29T11:13:13.444Z</time></trkpt><trkpt lat="43.7626082" lon="11.1897763"><ele>40.99999999999999</ele><time>2026-04-29T11:13:20.51Z</time></trkpt><trkpt lat="43.762653" lon="11.1898394"><ele>41.0</ele><time>2026-04-29T11:13:25.51Z</time></trkpt><trkpt lat="43.7627126" lon="11.1898944"><ele>40.99999999999999</ele><time>2026-04-29T11:13:31.516Z</time></trkpt><trkpt lat="43.762776" lon="11.1899297"><ele>41.0</ele><time>2026-04-29T11:13:36.488Z</time></trkpt><trkpt lat="43.7628508" lon="11.1899666"><ele>41.0</ele><time>2026-04-29T11:13:41.488Z</time></trkpt><trkpt lat="43.7629131" lon="11.1899887"><ele>41.0</ele><time>2026-04-29T11:13:46.489Z</time></trkpt><trkpt lat="43.7629729" lon="11.190018"><ele>41.0</ele><time>2026-04-29T11:13:50.505Z</time></trkpt><trkpt lat="43.7630461" lon="11.190016"><ele>40.99999999999999</ele><time>2026-04-29T11:13:55.375Z</time></trkpt><trkpt lat="43.7631201" lon="11.1900071"><ele>41.0</ele><time>2026-04-29T11:14:01.484Z</time></trkpt><trkpt lat="43.763193" lon="11.1899866"><ele>40.99999999999999</ele><time>2026-04-29T11:14:06.484Z</time></trkpt><trkpt lat="43.7632594" lon="11.1899839"><ele>41.0</ele><time>2026-04-29T11:14:11.551Z</time></trkpt><trkpt lat="43.7633301" lon="11.1899444"><ele>41.0</ele><time>2026-04-29T11:14:15.489Z</time></trkpt><trkpt lat="43.7634015" lon="11.1898926"><ele>41.0</ele><time>2026-04-29T11:14:19.529Z</time></trkpt><trkpt lat="43.7634633" lon="11.1898411"><ele>41.0</ele><time>2026-04-29T11:14:24.414Z</time></trkpt><trkpt lat="43.7635167" lon="11.1897765"><ele>40.99999999999999</ele><time>2026-04-29T11:14:29.5Z</time></trkpt><trkpt lat="43.76357" lon="11.1897128"><ele>41.0</ele><time>2026-04-29T11:14:33.443Z</time></trkpt><trkpt lat="43.7636177" lon="11.1896511"><ele>41.14285714285714</ele><time>2026-04-29T11:14:38.442Z</time></trkpt><trkpt lat="43.7636739" lon="11.1895821"><ele>41.285714285714285</ele><time>2026-04-29T11:14:43.438Z</time></trkpt><trkpt lat="43.763731" lon="11.1895027"><ele>41.42857142857143</ele><time>2026-04-29T11:14:48.438Z</time></trkpt><trkpt lat="43.7637812" lon="11.1894421"><ele>41.57142857142857</ele><time>2026-04-29T11:14:53.534Z</time></trkpt><trkpt lat="43.763827" lon="11.1893804"><ele>41.714285714285715</ele><time>2026-04-29T11:14:58.437Z</time></trkpt><trkpt lat="43.7638793" lon="11.1893139"><ele>41.857142857142854</ele><time>2026-04-29T11:15:04.413Z</time></trkpt><trkpt lat="43.7639303" lon="11.1892589"><ele>42.0</ele><time>2026-04-29T11:15:11.48Z</time></trkpt><trkpt lat="43.7639789" lon="11.1891936"><ele>42.0</ele><time>2026-04-29T11:15:17.504Z</time></trkpt><trkpt lat="43.7640283" lon="11.1891354"><ele>42.0</ele><time>2026-04-29T11:15:25.502Z</time></trkpt><trkpt lat="43.7640811" lon="11.1890606"><ele>42.0</ele><time>2026-04-29T11:15:30.502Z</time></trkpt><trkpt lat="43.7641341" lon="11.1889887"><ele>42.0</ele><time>2026-04-29T11:15:35.465Z</time></trkpt><trkpt lat="43.7641912" lon="11.1889167"><ele>42.0</ele><time>2026-04-29T11:15:41.48Z</time></trkpt><trkpt lat="43.7642386" lon="11.1888355"><ele>42.0</ele><time>2026-04-29T11:15:46.48Z</time></trkpt><trkpt lat="43.7642902" lon="11.1887731"><ele>42.0</ele><time>2026-04-29T11:15:52.458Z</time></trkpt><trkpt lat="43.7643479" lon="11.1887294"><ele>42.142857142857146</ele><time>2026-04-29T11:15:57.459Z</time></trkpt><trkpt lat="43.7644028" lon="11.1886672"><ele>42.285714285714285</ele><time>2026-04-29T11:16:05.501Z</time></trkpt><trkpt lat="43.7644567" lon="11.1885948"><ele>42.42857142857143</ele><time>2026-04-29T11:16:12.453Z</time></trkpt><trkpt lat="43.7644945" lon="11.1885217"><ele>42.57142857142857</ele><time>2026-04-29T11:16:22.454Z</time></trkpt><trkpt lat="43.7645459" lon="11.1884385"><ele>42.714285714285715</ele><time>2026-04-29T11:16:46.476Z</time></trkpt><trkpt lat="43.764588" lon="11.1883654"><ele>42.85714285714286</ele><time>2026-04-29T11:16:51.416Z</time></trkpt><trkpt lat="43.7646341" lon="11.1883011"><ele>43.0</ele><time>2026-04-29T11:16:57.454Z</time></trkpt><trkpt lat="43.7646862" lon="11.188231"><ele>43.00000000000001</ele><time>2026-04-29T11:17:03.433Z</time></trkpt><trkpt lat="43.7647332" lon="11.1881651"><ele>43.0</ele><time>2026-04-29T11:17:09.52Z</time></trkpt><trkpt lat="43.764786" lon="11.1880939"><ele>43.0</ele><time>2026-04-29T11:17:15.498Z</time></trkpt><trkpt lat="43.7648355" lon="11.1880238"><ele>43.0</ele><time>2026-04-29T11:17:20.497Z</time></trkpt><trkpt lat="43.7648822" lon="11.1879583"><ele>43.0</ele><time>2026-04-29T11:17:25.497Z</time></trkpt><trkpt lat="43.7649356" lon="11.1878917"><ele>43.00000000000001</ele><time>2026-04-29T11:17:30.497Z</time></trkpt><trkpt lat="43.7649896" lon="11.1878218"><ele>43.0</ele><time>2026-04-29T11:17:36.475Z</time></trkpt><trkpt lat="43.7650362" lon="11.1877456"><ele>43.00000000000001</ele><time>2026-04-29T11:17:42.453Z</time></trkpt><trkpt lat="43.765087" lon="11.1876769"><ele>43.0</ele><time>2026-04-29T11:17:47.534Z</time></trkpt><trkpt lat="43.7651381" lon="11.1876113"><ele>43.0</ele><time>2026-04-29T11:17:52.896Z</time></trkpt><trkpt lat="43.7651931" lon="11.1875413"><ele>43.0</ele><time>2026-04-29T11:17:57.447Z</time></trkpt><trkpt lat="43.7652364" lon="11.187472"><ele>43.0</ele><time>2026-04-29T11:18:01.47Z</time></trkpt><trkpt lat="43.765278" lon="11.1874046"><ele>43.00000000000001</ele><time>2026-04-29T11:18:05.49Z</time></trkpt><trkpt lat="43.7653309" lon="11.1873321"><ele>43.0</ele><time>2026-04-29T11:18:11.413Z</time></trkpt><trkpt lat="43.7653821" lon="11.1872699"><ele>42.85714285714286</ele><time>2026-04-29T11:18:16.469Z</time></trkpt><trkpt lat="43.7654282" lon="11.1872036"><ele>42.714285714285715</ele><time>2026-04-29T11:18:20.49Z</time></trkpt><trkpt lat="43.7654742" lon="11.1871402"><ele>42.57142857142857</ele><time>2026-04-29T11:18:24.505Z</time></trkpt><trkpt lat="43.7654929" lon="11.1870541"><ele>42.42857142857143</ele><time>2026-04-29T11:18:29.511Z</time></trkpt><trkpt lat="43.7655266" lon="11.1869552"><ele>42.285714285714285</ele><time>2026-04-29T11:18:34.511Z</time></trkpt><trkpt lat="43.7655925" lon="11.1869472"><ele>42.142857142857146</ele><time>2026-04-29T11:18:41.497Z</time></trkpt><trkpt lat="43.7656652" lon="11.1869484"><ele>42.0</ele><time>2026-04-29T11:18:51.466Z</time></trkpt><trkpt lat="43.765707" lon="11.1868683"><ele>42.0</ele><time>2026-04-29T11:18:56.493Z</time></trkpt><trkpt lat="43.7657552" lon="11.1868007"><ele>42.0</ele><time>2026-04-29T11:19:01.414Z</time></trkpt><trkpt lat="43.7657994" lon="11.186719"><ele>42.0</ele><time>2026-04-29T11:19:05.487Z</time></trkpt><trkpt lat="43.7658453" lon="11.1866462"><ele>42.0</ele><time>2026-04-29T11:19:09.509Z</time></trkpt><trkpt lat="43.7658947" lon="11.1865779"><ele>42.0</ele><time>2026-04-29T11:19:17.442Z</time></trkpt><trkpt lat="43.7659583" lon="11.1865121"><ele>42.0</ele><time>2026-04-29T11:19:22.442Z</time></trkpt><trkpt lat="43.7660175" lon="11.1864756"><ele>42.0</ele><time>2026-04-29T11:19:26.463Z</time></trkpt><trkpt lat="43.7660842" lon="11.1864154"><ele>41.857142857142854</ele><time>2026-04-29T11:19:31.462Z</time></trkpt><trkpt lat="43.7661283" lon="11.1863337"><ele>41.714285714285715</ele><time>2026-04-29T11:19:36.533Z</time></trkpt><trkpt lat="43.7660877" lon="11.1862346"><ele>41.57142857142857</ele><time>2026-04-29T11:19:40.483Z</time></trkpt><trkpt lat="43.766062" lon="11.1861483"><ele>41.42857142857143</ele><time>2026-04-29T11:19:43.526Z</time></trkpt><trkpt lat="43.7660479" lon="11.1860599"><ele>41.285714285714285</ele><time>2026-04-29T11:19:47.439Z</time></trkpt><trkpt lat="43.7660198" lon="11.1859773"><ele>41.14285714285714</ele><time>2026-04-29T11:19:52.438Z</time></trkpt><trkpt lat="43.7659829" lon="11.1858924"><ele>41.0</ele><time>2026-04-29T11:19:57.438Z</time></trkpt><trkpt lat="43.7659509" lon="11.1858157"><ele>40.99999999999999</ele><time>2026-04-29T11:20:01.392Z</time></trkpt><trkpt lat="43.7659217" lon="11.1857247"><ele>41.0</ele><time>2026-04-29T11:20:06.458Z</time></trkpt><trkpt lat="43.7659025" lon="11.1856381"><ele>41.0</ele><time>2026-04-29T11:20:11.458Z</time></trkpt><trkpt lat="43.7658696" lon="11.1855613"><ele>41.0</ele><time>2026-04-29T11:20:17.437Z</time></trkpt><trkpt lat="43.7658418" lon="11.1854817"><ele>41.0</ele><time>2026-04-29T11:20:22.436Z</time></trkpt><trkpt lat="43.7657987" lon="11.1854158"><ele>40.99999999999999</ele><time>2026-04-29T11:20:27.413Z</time></trkpt><trkpt lat="43.7657687" lon="11.1853274"><ele>41.0</ele><time>2026-04-29T11:20:32.435Z</time></trkpt><trkpt lat="43.7657287" lon="11.1852449"><ele>40.99999999999999</ele><time>2026-04-29T11:20:38.521Z</time></trkpt><trkpt lat="43.7657031" lon="11.1851399"><ele>41.0</ele><time>2026-04-29T11:20:42.372Z</time></trkpt><trkpt lat="43.7656724" lon="11.1850452"><ele>41.0</ele><time>2026-04-29T11:20:46.456Z</time></trkpt><trkpt lat="43.7656946" lon="11.1849581"><ele>41.0</ele><time>2026-04-29T11:20:49.556Z</time></trkpt><trkpt lat="43.7657119" lon="11.184868"><ele>41.0</ele><time>2026-04-29T11:20:53.52Z</time></trkpt><trkpt lat="43.7656966" lon="11.1847791"><ele>40.99999999999999</ele><time>2026-04-29T11:20:59.497Z</time></trkpt><trkpt lat="43.7656616" lon="11.1846817"><ele>41.0</ele><time>2026-04-29T11:21:04.498Z</time></trkpt><trkpt lat="43.765632" lon="11.1845991"><ele>40.99999999999999</ele><time>2026-04-29T11:21:09.513Z</time></trkpt><trkpt lat="43.7656091" lon="11.1844979"><ele>41.0</ele><time>2026-04-29T11:21:15.474Z</time></trkpt><trkpt lat="43.7655735" lon="11.1844164"><ele>41.0</ele><time>2026-04-29T11:21:19.495Z</time></trkpt><trkpt lat="43.7655468" lon="11.184336"><ele>41.0</ele><time>2026-04-29T11:21:23.375Z</time></trkpt><trkpt lat="43.7655215" lon="11.1842554"><ele>41.0</ele><time>2026-04-29T11:21:28.515Z</time></trkpt><trkpt lat="43.7654935" lon="11.1841733"><ele>40.99999999999999</ele><time>2026-04-29T11:21:32.428Z</time></trkpt><trkpt lat="43.7654526" lon="11.1840973"><ele>41.0</ele><time>2026-04-29T11:21:36.45Z</time></trkpt><trkpt lat="43.7654229" lon="11.1840076"><ele>40.99999999999999</ele><time>2026-04-29T11:21:41.411Z</time></trkpt><trkpt lat="43.7653969" lon="11.1839081"><ele>41.0</ele><time>2026-04-29T11:21:47.534Z</time></trkpt><trkpt lat="43.7653604" lon="11.1838365"><ele>41.0</ele><time>2026-04-29T11:21:51.448Z</time></trkpt><trkpt lat="43.7653062" lon="11.1837666"><ele>41.0</ele><time>2026-04-29T11:21:56.396Z</time></trkpt><trkpt lat="43.7652515" lon="11.1836975"><ele>41.0</ele><time>2026-04-29T11:22:01.447Z</time></trkpt><trkpt lat="43.7651881" lon="11.1836562"><ele>40.99999999999999</ele><time>2026-04-29T11:22:06.446Z</time></trkpt><trkpt lat="43.7651611" lon="11.1835721"><ele>41.0</ele><time>2026-04-29T11:22:10.466Z</time></trkpt><trkpt lat="43.7651995" lon="11.183503"><ele>41.285714285714285</ele><time>2026-04-29T11:22:14.488Z</time></trkpt><trkpt lat="43.7651744" lon="11.1834058"><ele>41.57142857142857</ele><time>2026-04-29T11:22:22.53Z</time></trkpt><trkpt lat="43.7651375" lon="11.1833208"><ele>41.85714285714286</ele><time>2026-04-29T11:22:27.529Z</time></trkpt><trkpt lat="43.7650882" lon="11.1832439"><ele>42.14285714285714</ele><time>2026-04-29T11:22:32.528Z</time></trkpt><trkpt lat="43.765051" lon="11.1831524"><ele>42.42857142857143</ele><time>2026-04-29T11:22:37.528Z</time></trkpt><trkpt lat="43.7650187" lon="11.1830606"><ele>42.714285714285715</ele><time>2026-04-29T11:22:42.526Z</time></trkpt><trkpt lat="43.7649939" lon="11.1829789"><ele>43.0</ele><time>2026-04-29T11:22:46.654Z</time></trkpt><trkpt lat="43.7649683" lon="11.1828855"><ele>43.00000000000001</ele><time>2026-04-29T11:22:52.427Z</time></trkpt><trkpt lat="43.7649454" lon="11.182803"><ele>43.0</ele><time>2026-04-29T11:22:57.427Z</time></trkpt><trkpt lat="43.7649208" lon="11.182719"><ele>43.0</ele><time>2026-04-29T11:23:01.438Z</time></trkpt><trkpt lat="43.7648927" lon="11.1826167"><ele>43.0</ele><time>2026-04-29T11:23:08.41Z</time></trkpt><trkpt lat="43.7648607" lon="11.1825237"><ele>43.0</ele><time>2026-04-29T11:23:12.523Z</time></trkpt><trkpt lat="43.7648288" lon="11.1824239"><ele>43.00000000000001</ele><time>2026-04-29T11:23:16.506Z</time></trkpt><trkpt lat="43.7648059" lon="11.1823273"><ele>43.0</ele><time>2026-04-29T11:23:21.514Z</time></trkpt><trkpt lat="43.7647986" lon="11.1822355"><ele>42.85714285714286</ele><time>2026-04-29T11:23:26.435Z</time></trkpt><trkpt lat="43.7647857" lon="11.182134"><ele>42.714285714285715</ele><time>2026-04-29T11:23:31.434Z</time></trkpt><trkpt lat="43.7647648" lon="11.182047"><ele>42.57142857142857</ele><time>2026-04-29T11:23:35.455Z</time></trkpt><trkpt lat="43.7647456" lon="11.1819591"><ele>42.42857142857143</ele><time>2026-04-29T11:23:39.476Z</time></trkpt><trkpt lat="43.7647204" lon="11.181872"><ele>42.285714285714285</ele><time>2026-04-29T11:23:47.504Z</time></trkpt><trkpt lat="43.7646874" lon="11.1817809"><ele>42.142857142857146</ele><time>2026-04-29T11:23:55.514Z</time></trkpt><trkpt lat="43.764709" lon="11.1816818"><ele>42.0</ele><time>2026-04-29T11:24:00.452Z</time></trkpt><trkpt lat="43.7646742" lon="11.1816001"><ele>41.714285714285715</ele><time>2026-04-29T11:24:05.393Z</time></trkpt><trkpt lat="43.7646573" lon="11.1815152"><ele>41.42857142857143</ele><time>2026-04-29T11:24:11.428Z</time></trkpt><trkpt lat="43.7646415" lon="11.1814292"><ele>41.14285714285714</ele><time>2026-04-29T11:24:15.449Z</time></trkpt><trkpt lat="43.7646254" lon="11.1813295"><ele>40.85714285714286</ele><time>2026-04-29T11:24:20.535Z</time></trkpt><trkpt lat="43.7646107" lon="11.1812332"><ele>40.57142857142857</ele><time>2026-04-29T11:24:25.448Z</time></trkpt><trkpt lat="43.7645971" lon="11.1811413"><ele>40.285714285714285</ele><time>2026-04-29T11:24:29.468Z</time></trkpt><trkpt lat="43.764588" lon="11.1810465"><ele>40.0</ele><time>2026-04-29T11:24:35.446Z</time></trkpt><trkpt lat="43.7645716" lon="11.1809508"><ele>40.0</ele><time>2026-04-29T11:24:40.445Z</time></trkpt><trkpt lat="43.7645518" lon="11.1808521"><ele>40.0</ele><time>2026-04-29T11:24:44.466Z</time></trkpt><trkpt lat="43.7645375" lon="11.1807628"><ele>40.0</ele><time>2026-04-29T11:24:49.465Z</time></trkpt><trkpt lat="43.7645274" lon="11.1806593"><ele>40.0</ele><time>2026-04-29T11:24:54.465Z</time></trkpt><trkpt lat="43.7644948" lon="11.1805839"><ele>40.0</ele><time>2026-04-29T11:25:00.533Z</time></trkpt><trkpt lat="43.764483" lon="11.1804962"><ele>40.0</ele><time>2026-04-29T11:25:04.464Z</time></trkpt><trkpt lat="43.7644648" lon="11.1804086"><ele>40.0</ele><time>2026-04-29T11:25:11.528Z</time></trkpt><trkpt lat="43.7644208" lon="11.1803424"><ele>40.285714285714285</ele><time>2026-04-29T11:25:18.482Z</time></trkpt><trkpt lat="43.764402" lon="11.1802453"><ele>40.57142857142857</ele><time>2026-04-29T11:25:30.437Z</time></trkpt><trkpt lat="43.7643809" lon="11.1801573"><ele>40.85714285714286</ele><time>2026-04-29T11:25:35.435Z</time></trkpt><trkpt lat="43.7643652" lon="11.1800708"><ele>41.14285714285714</ele><time>2026-04-29T11:25:39.457Z</time></trkpt><trkpt lat="43.7643412" lon="11.1799695"><ele>41.42857142857143</ele><time>2026-04-29T11:25:44.509Z</time></trkpt><trkpt lat="43.7643222" lon="11.1798701"><ele>41.714285714285715</ele><time>2026-04-29T11:25:48.479Z</time></trkpt><trkpt lat="43.7643024" lon="11.1797701"><ele>42.0</ele><time>2026-04-29T11:25:53.477Z</time></trkpt><trkpt lat="43.7643037" lon="11.1796821"><ele>42.142857142857146</ele><time>2026-04-29T11:25:58.477Z</time></trkpt><trkpt lat="43.7643508" lon="11.1796184"><ele>42.285714285714285</ele><time>2026-04-29T11:26:08.532Z</time></trkpt><trkpt lat="43.764351" lon="11.1795211"><ele>42.42857142857143</ele><time>2026-04-29T11:26:16.518Z</time></trkpt><trkpt lat="43.7643066" lon="11.1794208"><ele>42.57142857142857</ele><time>2026-04-29T11:26:20.408Z</time></trkpt><trkpt lat="43.7642501" lon="11.179372"><ele>42.714285714285715</ele><time>2026-04-29T11:26:25.256Z</time></trkpt><trkpt lat="43.7642074" lon="11.1792824"><ele>42.85714285714286</ele><time>2026-04-29T11:26:28.472Z</time></trkpt><trkpt lat="43.7641728" lon="11.1792056"><ele>43.0</ele><time>2026-04-29T11:26:32.581Z</time></trkpt><trkpt lat="43.7641842" lon="11.1791129"><ele>43.142857142857146</ele><time>2026-04-29T11:26:36.315Z</time></trkpt><trkpt lat="43.7641665" lon="11.1790064"><ele>43.285714285714285</ele><time>2026-04-29T11:26:42.553Z</time></trkpt><trkpt lat="43.7641401" lon="11.1789147"><ele>43.42857142857143</ele><time>2026-04-29T11:26:46.513Z</time></trkpt><trkpt lat="43.7641229" lon="11.1788262"><ele>43.57142857142857</ele><time>2026-04-29T11:26:50.531Z</time></trkpt><trkpt lat="43.7640991" lon="11.1787185"><ele>43.714285714285715</ele><time>2026-04-29T11:26:56.506Z</time></trkpt><trkpt lat="43.7640838" lon="11.1786324"><ele>43.85714285714286</ele><time>2026-04-29T11:27:00.411Z</time></trkpt><trkpt lat="43.7640802" lon="11.1785369"><ele>44.0</ele><time>2026-04-29T11:27:06.506Z</time></trkpt><trkpt lat="43.7640628" lon="11.1784506"><ele>44.0</ele><time>2026-04-29T11:27:10.527Z</time></trkpt><trkpt lat="43.7640488" lon="11.1783573"><ele>44.0</ele><time>2026-04-29T11:27:15.355Z</time></trkpt><trkpt lat="43.7640316" lon="11.1782701"><ele>44.0</ele><time>2026-04-29T11:27:19.437Z</time></trkpt><trkpt lat="43.7640158" lon="11.1781852"><ele>44.0</ele><time>2026-04-29T11:27:23.499Z</time></trkpt><trkpt lat="43.7639938" lon="11.1780999"><ele>44.0</ele><time>2026-04-29T11:27:28.515Z</time></trkpt><trkpt lat="43.7639915" lon="11.1779976"><ele>44.0</ele><time>2026-04-29T11:27:33.435Z</time></trkpt><trkpt lat="43.7639768" lon="11.177898"><ele>44.0</ele><time>2026-04-29T11:27:39.435Z</time></trkpt><trkpt lat="43.7639579" lon="11.177811"><ele>44.0</ele><time>2026-04-29T11:27:44.516Z</time></trkpt><trkpt lat="43.7639486" lon="11.1777133"><ele>44.0</ele><time>2026-04-29T11:27:48.531Z</time></trkpt><trkpt lat="43.7639285" lon="11.1776265"><ele>44.0</ele><time>2026-04-29T11:27:52.191Z</time></trkpt><trkpt lat="43.7639088" lon="11.1775242"><ele>44.0</ele><time>2026-04-29T11:27:57.414Z</time></trkpt><trkpt lat="43.7638941" lon="11.1774331"><ele>44.0</ele><time>2026-04-29T11:28:02.474Z</time></trkpt><trkpt lat="43.7638747" lon="11.1773424"><ele>44.0</ele><time>2026-04-29T11:28:10.516Z</time></trkpt><trkpt lat="43.763852" lon="11.1772414"><ele>44.0</ele><time>2026-04-29T11:28:15.5Z</time></trkpt><trkpt lat="43.7638292" lon="11.1771422"><ele>44.0</ele><time>2026-04-29T11:28:20.515Z</time></trkpt><trkpt lat="43.7638135" lon="11.1770418"><ele>44.0</ele><time>2026-04-29T11:28:25.352Z</time></trkpt><trkpt lat="43.7638029" lon="11.1769418"><ele>44.0</ele><time>2026-04-29T11:28:31.49Z</time></trkpt><trkpt lat="43.7637856" lon="11.1768375"><ele>44.0</ele><time>2026-04-29T11:28:36.491Z</time></trkpt><trkpt lat="43.7637773" lon="11.1767338"><ele>44.0</ele><time>2026-04-29T11:28:41.489Z</time></trkpt><trkpt lat="43.7637744" lon="11.1766417"><ele>44.0</ele><time>2026-04-29T11:28:45.51Z</time></trkpt><trkpt lat="43.7637605" lon="11.1765418"><ele>44.0</ele><time>2026-04-29T11:28:52.465Z</time></trkpt><trkpt lat="43.7637489" lon="11.1764477"><ele>43.714285714285715</ele><time>2026-04-29T11:28:57.465Z</time></trkpt><trkpt lat="43.7637384" lon="11.1763574"><ele>43.42857142857143</ele><time>2026-04-29T11:29:02.463Z</time></trkpt><trkpt lat="43.7637294" lon="11.1762669"><ele>43.14285714285714</ele><time>2026-04-29T11:29:07.505Z</time></trkpt><trkpt lat="43.7637269" lon="11.1761675"><ele>42.85714285714286</ele><time>2026-04-29T11:29:12.462Z</time></trkpt><trkpt lat="43.7637241" lon="11.1760632"><ele>42.57142857142857</ele><time>2026-04-29T11:29:17.416Z</time></trkpt><trkpt lat="43.7636979" lon="11.1759728"><ele>42.285714285714285</ele><time>2026-04-29T11:29:23.438Z</time></trkpt><trkpt lat="43.7636764" lon="11.1758807"><ele>42.0</ele><time>2026-04-29T11:29:30.503Z</time></trkpt><trkpt lat="43.7636106" lon="11.1758457"><ele>42.0</ele><time>2026-04-29T11:29:38.545Z</time></trkpt><trkpt lat="43.763675" lon="11.1759093"><ele>42.0</ele><time>2026-04-29T11:29:45.427Z</time></trkpt><trkpt lat="43.7637373" lon="11.1758937"><ele>42.0</ele><time>2026-04-29T11:29:52.457Z</time></trkpt><trkpt lat="43.7637506" lon="11.1757965"><ele>42.0</ele><time>2026-04-29T11:29:57.457Z</time></trkpt><trkpt lat="43.7637636" lon="11.175699"><ele>42.0</ele><time>2026-04-29T11:30:01.515Z</time></trkpt><trkpt lat="43.7637851" lon="11.1757835"><ele>42.0</ele><time>2026-04-29T11:30:14.513Z</time></trkpt><trkpt lat="43.7637815" lon="11.175886"><ele>42.0</ele><time>2026-04-29T11:30:20.499Z</time></trkpt><trkpt lat="43.7637092" lon="11.1758706"><ele>42.0</ele><time>2026-04-29T11:30:25.498Z</time></trkpt><trkpt lat="43.7636444" lon="11.1758474"><ele>42.0</ele><time>2026-04-29T11:30:28.432Z</time></trkpt><trkpt lat="43.7635676" lon="11.1758009"><ele>42.0</ele><time>2026-04-29T11:30:31.475Z</time></trkpt><trkpt lat="43.7635031" lon="11.1757625"><ele>42.0</ele><time>2026-04-29T11:30:35.496Z</time></trkpt><trkpt lat="43.7634408" lon="11.175741"><ele>42.0</ele><time>2026-04-29T11:30:39.517Z</time></trkpt><trkpt lat="43.7633807" lon="11.1757744"><ele>42.0</ele><time>2026-04-29T11:30:48.43Z</time></trkpt><trkpt lat="43.7633317" lon="11.1757013"><ele>42.0</ele><time>2026-04-29T11:30:54.427Z</time></trkpt><trkpt lat="43.7632706" lon="11.1756446"><ele>41.857142857142854</ele><time>2026-04-29T11:31:00.495Z</time></trkpt><trkpt lat="43.7632107" lon="11.175593"><ele>41.714285714285715</ele><time>2026-04-29T11:31:05.495Z</time></trkpt><trkpt lat="43.7631547" lon="11.1755528"><ele>41.57142857142857</ele><time>2026-04-29T11:31:10.494Z</time></trkpt><trkpt lat="43.7630949" lon="11.1755114"><ele>41.42857142857143</ele><time>2026-04-29T11:31:14.427Z</time></trkpt><trkpt lat="43.763033" lon="11.1754627"><ele>41.285714285714285</ele><time>2026-04-29T11:31:19.428Z</time></trkpt><trkpt lat="43.7629641" lon="11.1754204"><ele>41.14285714285714</ele><time>2026-04-29T11:31:23.43Z</time></trkpt><trkpt lat="43.7628974" lon="11.1753819"><ele>41.0</ele><time>2026-04-29T11:31:28.516Z</time></trkpt><trkpt lat="43.7628319" lon="11.1753818"><ele>40.99999999999999</ele><time>2026-04-29T11:31:35.481Z</time></trkpt><trkpt lat="43.7627712" lon="11.1754116"><ele>41.0</ele><time>2026-04-29T11:31:42.444Z</time></trkpt><trkpt lat="43.7627146" lon="11.1754803"><ele>41.0</ele><time>2026-04-29T11:31:46.465Z</time></trkpt><trkpt lat="43.7626745" lon="11.1755853"><ele>41.0</ele><time>2026-04-29T11:31:50.487Z</time></trkpt><trkpt lat="43.7626483" lon="11.1756672"><ele>41.0</ele><time>2026-04-29T11:31:53.375Z</time></trkpt><trkpt lat="43.762619" lon="11.1757534"><ele>40.99999999999999</ele><time>2026-04-29T11:31:57.416Z</time></trkpt><trkpt lat="43.7625914" lon="11.1758481"><ele>41.0</ele><time>2026-04-29T11:32:02.442Z</time></trkpt><trkpt lat="43.7625615" lon="11.1759372"><ele>41.42857142857142</ele><time>2026-04-29T11:32:07.441Z</time></trkpt><trkpt lat="43.7625091" lon="11.1759882"><ele>41.857142857142854</ele><time>2026-04-29T11:32:13.529Z</time></trkpt><trkpt lat="43.7624494" lon="11.1759458"><ele>42.285714285714285</ele><time>2026-04-29T11:32:19.505Z</time></trkpt><trkpt lat="43.7623877" lon="11.1758998"><ele>42.71428571428571</ele><time>2026-04-29T11:32:24.505Z</time></trkpt><trkpt lat="43.7623235" lon="11.1758609"><ele>43.14285714285714</ele><time>2026-04-29T11:32:29.504Z</time></trkpt><trkpt lat="43.7622564" lon="11.1758226"><ele>43.57142857142857</ele><time>2026-04-29T11:32:36.461Z</time></trkpt><trkpt lat="43.7621888" lon="11.1757933"><ele>44.0</ele><time>2026-04-29T11:32:41.531Z</time></trkpt><trkpt lat="43.7621247" lon="11.1757562"><ele>44.0</ele><time>2026-04-29T11:32:46.557Z</time></trkpt><trkpt lat="43.7620669" lon="11.1757189"><ele>44.0</ele><time>2026-04-29T11:32:52.271Z</time></trkpt><trkpt lat="43.7620026" lon="11.1756829"><ele>44.0</ele><time>2026-04-29T11:32:56.459Z</time></trkpt><trkpt lat="43.7619493" lon="11.1756325"><ele>44.0</ele><time>2026-04-29T11:33:00.502Z</time></trkpt><trkpt lat="43.7618774" lon="11.1755945"><ele>44.0</ele><time>2026-04-29T11:33:07.435Z</time></trkpt><trkpt lat="43.7618107" lon="11.1755823"><ele>44.0</ele><time>2026-04-29T11:33:13.514Z</time></trkpt><trkpt lat="43.7617419" lon="11.1756148"><ele>44.0</ele><time>2026-04-29T11:33:22.434Z</time></trkpt><trkpt lat="43.7616922" lon="11.1756889"><ele>44.0</ele><time>2026-04-29T11:33:26.454Z</time></trkpt><trkpt lat="43.7616334" lon="11.1757525"><ele>44.0</ele><time>2026-04-29T11:33:31.453Z</time></trkpt><trkpt lat="43.7615917" lon="11.1758253"><ele>44.0</ele><time>2026-04-29T11:33:37.19Z</time></trkpt><trkpt lat="43.7615648" lon="11.1759084"><ele>44.0</ele><time>2026-04-29T11:33:43.428Z</time></trkpt><trkpt lat="43.7615659" lon="11.1760068"><ele>44.0</ele><time>2026-04-29T11:33:48.518Z</time></trkpt><trkpt lat="43.7615867" lon="11.1761039"><ele>44.0</ele><time>2026-04-29T11:33:53.372Z</time></trkpt><trkpt lat="43.7615653" lon="11.1761861"><ele>44.0</ele><time>2026-04-29T11:33:58.517Z</time></trkpt><trkpt lat="43.7615208" lon="11.1762497"><ele>44.0</ele><time>2026-04-29T11:34:03.516Z</time></trkpt><trkpt lat="43.7614651" lon="11.1763091"><ele>44.0</ele><time>2026-04-29T11:34:07.429Z</time></trkpt><trkpt lat="43.7614124" lon="11.176378"><ele>44.0</ele><time>2026-04-29T11:34:13.428Z</time></trkpt><trkpt lat="43.7613705" lon="11.1764476"><ele>44.0</ele><time>2026-04-29T11:34:18.516Z</time></trkpt><trkpt lat="43.7613406" lon="11.1765298"><ele>44.0</ele><time>2026-04-29T11:34:22.537Z</time></trkpt><trkpt lat="43.761308" lon="11.1766052"><ele>44.0</ele><time>2026-04-29T11:34:27.427Z</time></trkpt><trkpt lat="43.7612759" lon="11.176694"><ele>44.0</ele><time>2026-04-29T11:34:33.51Z</time></trkpt><trkpt lat="43.7612563" lon="11.1767869"><ele>43.85714285714286</ele><time>2026-04-29T11:34:39.491Z</time></trkpt><trkpt lat="43.7612218" lon="11.176872"><ele>43.714285714285715</ele><time>2026-04-29T11:34:45.468Z</time></trkpt><trkpt lat="43.7611993" lon="11.1769648"><ele>43.57142857142857</ele><time>2026-04-29T11:34:50.391Z</time></trkpt><trkpt lat="43.7611534" lon="11.1770438"><ele>43.42857142857143</ele><time>2026-04-29T11:34:55.467Z</time></trkpt><trkpt lat="43.761123" lon="11.1771314"><ele>43.285714285714285</ele><time>2026-04-29T11:34:59.515Z</time></trkpt><trkpt lat="43.761082" lon="11.1772069"><ele>43.142857142857146</ele><time>2026-04-29T11:35:05.466Z</time></trkpt><trkpt lat="43.7610442" lon="11.1772908"><ele>43.0</ele><time>2026-04-29T11:35:12.531Z</time></trkpt><trkpt lat="43.7610039" lon="11.1773852"><ele>43.00000000000001</ele><time>2026-04-29T11:35:18.509Z</time></trkpt><trkpt lat="43.7609385" lon="11.1774199"><ele>43.0</ele><time>2026-04-29T11:35:23.508Z</time></trkpt><trkpt lat="43.7608789" lon="11.1773789"><ele>43.0</ele><time>2026-04-29T11:35:34.485Z</time></trkpt><trkpt lat="43.7608241" lon="11.1773174"><ele>43.0</ele><time>2026-04-29T11:35:41.443Z</time></trkpt><trkpt lat="43.7607728" lon="11.177258"><ele>43.0</ele><time>2026-04-29T11:35:46.442Z</time></trkpt><trkpt lat="43.7607131" lon="11.1772004"><ele>43.00000000000001</ele><time>2026-04-29T11:35:51.442Z</time></trkpt><trkpt lat="43.7606469" lon="11.1771492"><ele>43.0</ele><time>2026-04-29T11:35:57.428Z</time></trkpt><trkpt lat="43.7605867" lon="11.177098"><ele>43.00000000000001</ele><time>2026-04-29T11:36:03.427Z</time></trkpt><trkpt lat="43.7605272" lon="11.1770527"><ele>43.0</ele><time>2026-04-29T11:36:08.427Z</time></trkpt><trkpt lat="43.7604629" lon="11.1770014"><ele>43.0</ele><time>2026-04-29T11:36:13.508Z</time></trkpt><trkpt lat="43.7603962" lon="11.1769506"><ele>43.0</ele><time>2026-04-29T11:36:18.428Z</time></trkpt><trkpt lat="43.7603247" lon="11.1769079"><ele>43.0</ele><time>2026-04-29T11:36:22.427Z</time></trkpt><trkpt lat="43.7602635" lon="11.1768657"><ele>43.00000000000001</ele><time>2026-04-29T11:36:26.444Z</time></trkpt><trkpt lat="43.7602078" lon="11.1768176"><ele>43.0</ele><time>2026-04-29T11:36:31.445Z</time></trkpt><trkpt lat="43.7601443" lon="11.176759"><ele>42.85714285714286</ele><time>2026-04-29T11:36:39.488Z</time></trkpt><trkpt lat="43.7600748" lon="11.1767239"><ele>42.714285714285715</ele><time>2026-04-29T11:36:44.476Z</time></trkpt><trkpt lat="43.7600086" lon="11.1767732"><ele>42.57142857142857</ele><time>2026-04-29T11:36:49.488Z</time></trkpt><trkpt lat="43.7599555" lon="11.176839"><ele>42.42857142857143</ele><time>2026-04-29T11:36:53.335Z</time></trkpt><trkpt lat="43.7598918" lon="11.1768415"><ele>42.285714285714285</ele><time>2026-04-29T11:37:04.49Z</time></trkpt><trkpt lat="43.759833" lon="11.1769187"><ele>42.142857142857146</ele><time>2026-04-29T11:37:09.489Z</time></trkpt><trkpt lat="43.7597941" lon="11.1770099"><ele>42.0</ele><time>2026-04-29T11:37:14.49Z</time></trkpt><trkpt lat="43.759751" lon="11.1770753"><ele>42.0</ele><time>2026-04-29T11:37:18.427Z</time></trkpt><trkpt lat="43.7597079" lon="11.1771661"><ele>42.0</ele><time>2026-04-29T11:37:23.476Z</time></trkpt><trkpt lat="43.7596708" lon="11.1772464"><ele>42.0</ele><time>2026-04-29T11:37:28.486Z</time></trkpt><trkpt lat="43.7596369" lon="11.1773249"><ele>42.0</ele><time>2026-04-29T11:37:33.427Z</time></trkpt><trkpt lat="43.7596022" lon="11.1774055"><ele>42.0</ele><time>2026-04-29T11:37:38.428Z</time></trkpt><trkpt lat="43.7595679" lon="11.1774843"><ele>42.0</ele><time>2026-04-29T11:37:43.514Z</time></trkpt><trkpt lat="43.7595255" lon="11.1775764"><ele>42.0</ele><time>2026-04-29T11:37:49.427Z</time></trkpt><trkpt lat="43.759493" lon="11.1776526"><ele>42.0</ele><time>2026-04-29T11:37:54.493Z</time></trkpt><trkpt lat="43.7594579" lon="11.1777374"><ele>42.0</ele><time>2026-04-29T11:38:00.473Z</time></trkpt><trkpt lat="43.7594259" lon="11.1778138"><ele>42.0</ele><time>2026-04-29T11:38:05.473Z</time></trkpt><trkpt lat="43.7593929" lon="11.1778937"><ele>42.0</ele><time>2026-04-29T11:38:09.494Z</time></trkpt><trkpt lat="43.7593591" lon="11.1779751"><ele>42.0</ele><time>2026-04-29T11:38:14.492Z</time></trkpt><trkpt lat="43.7593282" lon="11.1780512"><ele>42.0</ele><time>2026-04-29T11:38:20.515Z</time></trkpt><trkpt lat="43.7592879" lon="11.1781383"><ele>42.0</ele><time>2026-04-29T11:38:26.452Z</time></trkpt><trkpt lat="43.7592496" lon="11.1782133"><ele>42.285714285714285</ele><time>2026-04-29T11:38:30.453Z</time></trkpt><trkpt lat="43.7592133" lon="11.1782939"><ele>42.57142857142857</ele><time>2026-04-29T11:38:34.496Z</time></trkpt><trkpt lat="43.7591762" lon="11.1783758"><ele>42.85714285714286</ele><time>2026-04-29T11:38:39.497Z</time></trkpt><trkpt lat="43.7591309" lon="11.1784575"><ele>43.14285714285714</ele><time>2026-04-29T11:38:45.476Z</time></trkpt><trkpt lat="43.7591" lon="11.178543"><ele>43.42857142857143</ele><time>2026-04-29T11:38:50.433Z</time></trkpt><trkpt lat="43.7590661" lon="11.1786191"><ele>43.714285714285715</ele><time>2026-04-29T11:38:55.477Z</time></trkpt><trkpt lat="43.7590262" lon="11.1787077"><ele>44.0</ele><time>2026-04-29T11:39:01.455Z</time></trkpt><trkpt lat="43.7589912" lon="11.1787824"><ele>44.0</ele><time>2026-04-29T11:39:06.433Z</time></trkpt><trkpt lat="43.7589603" lon="11.1788633"><ele>44.0</ele><time>2026-04-29T11:39:11.456Z</time></trkpt><trkpt lat="43.7589221" lon="11.1789508"><ele>44.0</ele><time>2026-04-29T11:39:16.457Z</time></trkpt><trkpt lat="43.7588837" lon="11.1790227"><ele>44.0</ele><time>2026-04-29T11:39:20.479Z</time></trkpt><trkpt lat="43.7588401" lon="11.1791134"><ele>44.0</ele><time>2026-04-29T11:39:25.48Z</time></trkpt><trkpt lat="43.7587998" lon="11.1791869"><ele>44.0</ele><time>2026-04-29T11:39:30.48Z</time></trkpt><trkpt lat="43.7587667" lon="11.1792655"><ele>44.0</ele><time>2026-04-29T11:39:36.483Z</time></trkpt><trkpt lat="43.7587354" lon="11.1793512"><ele>44.0</ele><time>2026-04-29T11:39:42.439Z</time></trkpt><trkpt lat="43.7586929" lon="11.1794269"><ele>44.0</ele><time>2026-04-29T11:39:48.427Z</time></trkpt><trkpt lat="43.7586554" lon="11.1795077"><ele>44.0</ele><time>2026-04-29T11:39:54.427Z</time></trkpt><trkpt lat="43.7586154" lon="11.1795899"><ele>44.0</ele><time>2026-04-29T11:40:00.484Z</time></trkpt><trkpt lat="43.758578" lon="11.1796684"><ele>44.0</ele><time>2026-04-29T11:40:07.441Z</time></trkpt><trkpt lat="43.7585376" lon="11.1797554"><ele>44.0</ele><time>2026-04-29T11:40:13.427Z</time></trkpt><trkpt lat="43.7584964" lon="11.1798435"><ele>44.0</ele><time>2026-04-29T11:40:18.427Z</time></trkpt><trkpt lat="43.7584844" lon="11.1799359"><ele>44.0</ele><time>2026-04-29T11:40:23.428Z</time></trkpt><trkpt lat="43.7584702" lon="11.1800229"><ele>44.0</ele><time>2026-04-29T11:40:33.428Z</time></trkpt><trkpt lat="43.7584436" lon="11.1801227"><ele>44.0</ele><time>2026-04-29T11:40:38.413Z</time></trkpt><trkpt lat="43.7584055" lon="11.1801948"><ele>44.0</ele><time>2026-04-29T11:40:44.427Z</time></trkpt><trkpt lat="43.7583601" lon="11.1802608"><ele>44.0</ele><time>2026-04-29T11:40:50.487Z</time></trkpt><trkpt lat="43.7582933" lon="11.1802725"><ele>44.0</ele><time>2026-04-29T11:40:55.487Z</time></trkpt><trkpt lat="43.7582352" lon="11.1803321"><ele>44.0</ele><time>2026-04-29T11:40:59.427Z</time></trkpt><trkpt lat="43.7581957" lon="11.1804013"><ele>44.0</ele><time>2026-04-29T11:41:03.428Z</time></trkpt><trkpt lat="43.7581501" lon="11.1804718"><ele>44.0</ele><time>2026-04-29T11:41:08.391Z</time></trkpt><trkpt lat="43.7580968" lon="11.1805262"><ele>44.0</ele><time>2026-04-29T11:41:15.49Z</time></trkpt><trkpt lat="43.758066" lon="11.1806084"><ele>44.0</ele><time>2026-04-29T11:41:20.374Z</time></trkpt><trkpt lat="43.7580024" lon="11.1806165"><ele>44.0</ele><time>2026-04-29T11:41:30.492Z</time></trkpt><trkpt lat="43.7579335" lon="11.180585"><ele>44.0</ele><time>2026-04-29T11:41:36.471Z</time></trkpt><trkpt lat="43.7578593" lon="11.1805584"><ele>44.0</ele><time>2026-04-29T11:41:41.467Z</time></trkpt><trkpt lat="43.7577982" lon="11.1805058"><ele>44.0</ele><time>2026-04-29T11:41:47.447Z</time></trkpt><trkpt lat="43.7577301" lon="11.1805087"><ele>44.0</ele><time>2026-04-29T11:41:56.236Z</time></trkpt><trkpt lat="43.7576757" lon="11.180557"><ele>43.0</ele><time>2026-04-29T11:42:03.355Z</time></trkpt><trkpt lat="43.7576522" lon="11.1806539"><ele>43.0</ele><time>2026-04-29T11:42:26.251Z</time></trkpt></trkseg></trk></gpx>